Terminal Aerodrome Forecast
Issued by NWS

Home | Current Version | Previous Version | Text Only | Print | Product List | Glossary On
Versions: 1 2 3 4 5 6 7 8 9 10 11 12 13 14 15
000
FTUS45 KTFX 192300
TAFLWT
TAF
KLWT 192328Z 2000/2024 12005KT P6SM OVC090
     FM200300 26010KT P6SM VCSH SCT030 OVC050
      TEMPO 2004/2008 5SM -SHRASN OVC030
     FM201100 24011KT P6SM SCT050=

USA.gov is the U.S. government's official web portal to all federal, state and local government web resources and services.